sensor_id;sensor_type;location;lat;lon;timestamp;temperature;humidity
11140;DHT22;5624;49.388;11.350;2023-06-22T00:00:53;17.40;99.90
11140;DHT22;5624;49.388;11.350;2023-06-22T00:03:20;17.40;99.90
11140;DHT22;5624;49.388;11.350;2023-06-22T00:05:46;17.40;99.90
11140;DHT22;5624;49.388;11.350;2023-06-22T00:08:12;17.40;99.90
11140;DHT22;5624;49.388;11.350;2023-06-22T00:10:38;17.40;99.90
11140;DHT22;5624;49.388;11.350;2023-06-22T00:13:05;17.30;99.90
11140;DHT22;5624;49.388;11.350;2023-06-22T00:15:31;17.20;99.90
11140;DHT22;5624;49.388;11.350;2023-06-22T00:17:56;17.30;99.90
11140;DHT22;5624;49.388;11.350;2023-06-22T00:20:23;17.10;99.90
11140;DHT22;5624;49.388;11.350;2023-06-22T00:22:53;17.00;99.90
11140;DHT22;5624;49.388;11.350;2023-06-22T00:25:19;17.10;99.90
11140;DHT22;5624;49.388;11.350;2023-06-22T00:27:44;17.00;99.90
11140;DHT22;5624;49.388;11.350;2023-06-22T00:30:10;17.00;99.90
11140;DHT22;5624;49.388;11.350;2023-06-22T00:32:36;17.00;99.90
11140;DHT22;5624;49.388;11.350;2023-06-22T00:35:02;17.00;99.90
11140;DHT22;5624;49.388;11.350;2023-06-22T00:37:27;17.00;99.90
11140;DHT22;5624;49.388;11.350;2023-06-22T00:39:58;17.10;99.90
11140;DHT22;5624;49.388;11.350;2023-06-22T00:42:24;17.00;99.90
11140;DHT22;5624;49.388;11.350;2023-06-22T00:44:49;17.00;99.90
11140;DHT22;5624;49.388;11.350;2023-06-22T00:47:16;17.10;99.90
11140;DHT22;5624;49.388;11.350;2023-06-22T00:49:42;17.00;99.90
11140;DHT22;5624;49.388;11.350;2023-06-22T00:52:09;17.00;99.90
11140;DHT22;5624;49.388;11.350;2023-06-22T00:54:40;17.00;99.90
11140;DHT22;5624;49.388;11.350;2023-06-22T00:57:13;16.80;99.90
11140;DHT22;5624;49.388;11.350;2023-06-22T00:59:42;16.70;99.90
11140;DHT22;5624;49.388;11.350;2023-06-22T01:02:08;16.70;99.90
11140;DHT22;5624;49.388;11.350;2023-06-22T01:04:35;16.60;99.90
11140;DHT22;5624;49.388;11.350;2023-06-22T01:09:48;16.50;99.90
11140;DHT22;5624;49.388;11.350;2023-06-22T01:12:16;16.40;99.90
11140;DHT22;5624;49.388;11.350;2023-06-22T01:14:47;16.40;99.90
11140;DHT22;5624;49.388;11.350;2023-06-22T01:17:18;16.30;99.90
11140;DHT22;5624;49.388;11.350;2023-06-22T01:19:49;16.30;99.90
11140;DHT22;5624;49.388;11.350;2023-06-22T01:22:30;16.30;99.90
11140;DHT22;5624;49.388;11.350;2023-06-22T01:25:09;16.20;99.90
11140;DHT22;5624;49.388;11.350;2023-06-22T01:28:05;16.10;99.90
11140;DHT22;5624;49.388;11.350;2023-06-22T01:30:34;16.10;99.90
11140;DHT22;5624;49.388;11.350;2023-06-22T01:33:01;16.20;99.90
11140;DHT22;5624;49.388;11.350;2023-06-22T01:35:28;16.20;99.90
11140;DHT22;5624;49.388;11.350;2023-06-22T01:37:55;16.20;99.90
11140;DHT22;5624;49.388;11.350;2023-06-22T01:40:21;16.20;99.90
11140;DHT22;5624;49.388;11.350;2023-06-22T01:42:47;16.20;99.90
11140;DHT22;5624;49.388;11.350;2023-06-22T01:45:13;16.20;99.90
11140;DHT22;5624;49.388;11.350;2023-06-22T01:47:40;16.20;99.90
11140;DHT22;5624;49.388;11.350;2023-06-22T01:50:07;16.20;99.90
11140;DHT22;5624;49.388;11.350;2023-06-22T01:52:33;16.30;99.90
11140;DHT22;5624;49.388;11.350;2023-06-22T01:55:00;16.40;99.90
11140;DHT22;5624;49.388;11.350;2023-06-22T01:57:26;16.50;99.90
11140;DHT22;5624;49.388;11.350;2023-06-22T02:00:11;16.60;99.90
11140;DHT22;5624;49.388;11.350;2023-06-22T02:02:53;16.70;99.90
11140;DHT22;5624;49.388;11.350;2023-06-22T02:05:24;16.80;99.90
11140;DHT22;5624;49.388;11.350;2023-06-22T02:08:02;16.80;99.90
11140;DHT22;5624;49.388;11.350;2023-06-22T02:10:29;16.90;99.90
11140;DHT22;5624;49.388;11.350;2023-06-22T02:12:57;16.90;99.90
11140;DHT22;5624;49.388;11.350;2023-06-22T02:15:25;17.00;99.90
11140;DHT22;5624;49.388;11.350;2023-06-22T02:17:51;17.00;99.90
11140;DHT22;5624;49.388;11.350;2023-06-22T02:20:16;17.00;99.90
11140;DHT22;5624;49.388;11.350;2023-06-22T02:22:42;17.00;99.90
11140;DHT22;5624;49.388;11.350;2023-06-22T02:25:08;17.00;99.90
11140;DHT22;5624;49.388;11.350;2023-06-22T02:27:33;17.00;99.90
11140;DHT22;5624;49.388;11.350;2023-06-22T02:29:59;17.00;99.90
11140;DHT22;5624;49.388;11.350;2023-06-22T02:32:24;17.00;99.90
11140;DHT22;5624;49.388;11.350;2023-06-22T02:34:50;17.00;99.90
11140;DHT22;5624;49.388;11.350;2023-06-22T02:37:16;16.90;99.90
11140;DHT22;5624;49.388;11.350;2023-06-22T02:39:42;16.80;99.90
11140;DHT22;5624;49.388;11.350;2023-06-22T02:42:07;16.90;99.90
11140;DHT22;5624;49.388;11.350;2023-06-22T02:44:33;16.80;99.90
11140;DHT22;5624;49.388;11.350;2023-06-22T02:46:58;16.90;99.90
11140;DHT22;5624;49.388;11.350;2023-06-22T02:49:24;16.90;99.90
11140;DHT22;5624;49.388;11.350;2023-06-22T02:51:50;17.00;99.90
11140;DHT22;5624;49.388;11.350;2023-06-22T02:54:16;17.00;99.90
11140;DHT22;5624;49.388;11.350;2023-06-22T02:56:42;17.00;99.90
11140;DHT22;5624;49.388;11.350;2023-06-22T02:59:10;17.10;99.90
11140;DHT22;5624;49.388;11.350;2023-06-22T03:01:36;17.10;99.90
11140;DHT22;5624;49.388;11.350;2023-06-22T03:04:08;17.10;99.90
11140;DHT22;5624;49.388;11.350;2023-06-22T03:06:34;17.20;99.90
11140;DHT22;5624;49.388;11.350;2023-06-22T03:09:02;17.20;99.90
11140;DHT22;5624;49.388;11.350;2023-06-22T03:11:29;17.20;99.90
11140;DHT22;5624;49.388;11.350;2023-06-22T03:13:56;17.20;99.90
11140;DHT22;5624;49.388;11.350;2023-06-22T03:16:21;17.20;99.90
11140;DHT22;5624;49.388;11.350;2023-06-22T03:18:47;17.20;99.90
11140;DHT22;5624;49.388;11.350;2023-06-22T03:21:12;17.20;99.90
11140;DHT22;5624;49.388;11.350;2023-06-22T03:23:41;17.10;99.90
11140;DHT22;5624;49.388;11.350;2023-06-22T03:26:06;17.10;99.90
11140;DHT22;5624;49.388;11.350;2023-06-22T03:28:32;17.00;99.90
11140;DHT22;5624;49.388;11.350;2023-06-22T03:30:58;16.90;99.90
11140;DHT22;5624;49.388;11.350;2023-06-22T03:33:24;16.90;99.90
11140;DHT22;5624;49.388;11.350;2023-06-22T03:35:49;16.90;99.90
11140;DHT22;5624;49.388;11.350;2023-06-22T03:38:16;16.90;99.90
11140;DHT22;5624;49.388;11.350;2023-06-22T03:40:42;16.90;99.90
11140;DHT22;5624;49.388;11.350;2023-06-22T03:43:07;17.00;99.90
11140;DHT22;5624;49.388;11.350;2023-06-22T03:45:33;17.10;99.90
11140;DHT22;5624;49.388;11.350;2023-06-22T03:47:58;17.10;99.90
11140;DHT22;5624;49.388;11.350;2023-06-22T03:50:24;17.10;99.90
11140;DHT22;5624;49.388;11.350;2023-06-22T03:52:50;17.10;99.90
11140;DHT22;5624;49.388;11.350;2023-06-22T03:55:19;17.10;99.90
11140;DHT22;5624;49.388;11.350;2023-06-22T03:57:44;17.20;99.90
11140;DHT22;5624;49.388;11.350;2023-06-22T04:00:10;17.20;99.90
11140;DHT22;5624;49.388;11.350;2023-06-22T04:02:36;17.20;99.90
11140;DHT22;5624;49.388;11.350;2023-06-22T04:05:02;17.30;99.20
11140;DHT22;5624;49.388;11.350;2023-06-22T04:07:27;17.30;99.90
11140;DHT22;5624;49.388;11.350;2023-06-22T04:09:53;17.40;99.50
11140;DHT22;5624;49.388;11.350;2023-06-22T04:12:18;17.40;99.40
11140;DHT22;5624;49.388;11.350;2023-06-22T04:14:44;17.40;99.60
11140;DHT22;5624;49.388;11.350;2023-06-22T04:17:09;17.50;99.40
11140;DHT22;5624;49.388;11.350;2023-06-22T04:19:35;17.60;98.70
11140;DHT22;5624;49.388;11.350;2023-06-22T04:22:01;17.60;98.90
11140;DHT22;5624;49.388;11.350;2023-06-22T04:24:26;17.80;98.80
11140;DHT22;5624;49.388;11.350;2023-06-22T04:26:52;17.90;98.20
11140;DHT22;5624;49.388;11.350;2023-06-22T04:29:20;18.00;97.00
11140;DHT22;5624;49.388;11.350;2023-06-22T04:31:46;18.10;97.00
11140;DHT22;5624;49.388;11.350;2023-06-22T04:34:17;18.20;96.80
11140;DHT22;5624;49.388;11.350;2023-06-22T04:36:42;18.30;95.50
11140;DHT22;5624;49.388;11.350;2023-06-22T04:39:12;18.30;95.30
11140;DHT22;5624;49.388;11.350;2023-06-22T04:41:39;18.40;95.20
11140;DHT22;5624;49.388;11.350;2023-06-22T04:44:17;18.50;95.20
11140;DHT22;5624;49.388;11.350;2023-06-22T04:46:53;18.70;94.20
11140;DHT22;5624;49.388;11.350;2023-06-22T04:49:29;18.80;92.40
11140;DHT22;5624;49.388;11.350;2023-06-22T04:51:59;19.00;92.10
11140;DHT22;5624;49.388;11.350;2023-06-22T04:54:25;19.20;90.90
11140;DHT22;5624;49.388;11.350;2023-06-22T04:56:50;19.40;89.70
11140;DHT22;5624;49.388;11.350;2023-06-22T04:59:22;19.50;89.90
11140;DHT22;5624;49.388;11.350;2023-06-22T05:01:48;19.60;89.30
11140;DHT22;5624;49.388;11.350;2023-06-22T05:04:13;19.70;88.60
11140;DHT22;5624;49.388;11.350;2023-06-22T05:06:39;19.70;89.00
11140;DHT22;5624;49.388;11.350;2023-06-22T05:09:05;19.90;88.00
11140;DHT22;5624;49.388;11.350;2023-06-22T05:11:31;20.20;86.70
11140;DHT22;5624;49.388;11.350;2023-06-22T05:13:57;20.70;84.00
11140;DHT22;5624;49.388;11.350;2023-06-22T05:16:23;21.10;82.40
11140;DHT22;5624;49.388;11.350;2023-06-22T05:18:53;21.10;81.70
11140;DHT22;5624;49.388;11.350;2023-06-22T05:21:24;21.20;82.30
11140;DHT22;5624;49.388;11.350;2023-06-22T05:23:51;21.20;81.60
11140;DHT22;5624;49.388;11.350;2023-06-22T05:26:18;21.10;81.20
11140;DHT22;5624;49.388;11.350;2023-06-22T05:28:44;21.10;82.20
11140;DHT22;5624;49.388;11.350;2023-06-22T05:31:12;21.30;81.00
11140;DHT22;5624;49.388;11.350;2023-06-22T05:33:38;21.50;80.40
11140;DHT22;5624;49.388;11.350;2023-06-22T05:36:04;22.00;78.90
11140;DHT22;5624;49.388;11.350;2023-06-22T05:38:30;22.30;77.20
11140;DHT22;5624;49.388;11.350;2023-06-22T05:40:56;22.50;75.80
11140;DHT22;5624;49.388;11.350;2023-06-22T05:43:22;22.60;75.70
11140;DHT22;5624;49.388;11.350;2023-06-22T05:45:47;22.90;74.40
11140;DHT22;5624;49.388;11.350;2023-06-22T05:48:13;23.10;73.60
11140;DHT22;5624;49.388;11.350;2023-06-22T05:50:38;23.30;72.80
11140;DHT22;5624;49.388;11.350;2023-06-22T05:53:04;23.40;73.20
11140;DHT22;5624;49.388;11.350;2023-06-22T05:55:32;23.60;71.40
11140;DHT22;5624;49.388;11.350;2023-06-22T05:57:58;23.80;71.30
11140;DHT22;5624;49.388;11.350;2023-06-22T06:00:23;23.80;71.10
11140;DHT22;5624;49.388;11.350;2023-06-22T06:02:49;24.00;70.20
11140;DHT22;5624;49.388;11.350;2023-06-22T06:05:15;24.10;70.50
11140;DHT22;5624;49.388;11.350;2023-06-22T06:07:42;24.50;69.20
11140;DHT22;5624;49.388;11.350;2023-06-22T06:10:08;25.10;66.30
11140;DHT22;5624;49.388;11.350;2023-06-22T06:12:34;25.50;65.80
11140;DHT22;5624;49.388;11.350;2023-06-22T06:14:59;26.20;64.60
11140;DHT22;5624;49.388;11.350;2023-06-22T06:17:25;26.60;60.60
11140;DHT22;5624;49.388;11.350;2023-06-22T06:19:51;26.90;59.80
11140;DHT22;5624;49.388;11.350;2023-06-22T06:22:16;27.40;58.10
11140;DHT22;5624;49.388;11.350;2023-06-22T06:24:44;27.90;56.40
11140;DHT22;5624;49.388;11.350;2023-06-22T06:27:09;28.30;54.20
11140;DHT22;5624;49.388;11.350;2023-06-22T06:29:35;28.40;54.60
11140;DHT22;5624;49.388;11.350;2023-06-22T06:32:00;28.50;53.90
11140;DHT22;5624;49.388;11.350;2023-06-22T06:34:26;28.70;52.40
11140;DHT22;5624;49.388;11.350;2023-06-22T06:36:51;28.90;53.30
11140;DHT22;5624;49.388;11.350;2023-06-22T06:39:17;29.40;51.60
11140;DHT22;5624;49.388;11.350;2023-06-22T06:41:43;29.50;50.70
11140;DHT22;5624;49.388;11.350;2023-06-22T06:44:08;29.40;50.90
11140;DHT22;5624;49.388;11.350;2023-06-22T06:46:34;29.20;51.60
11140;DHT22;5624;49.388;11.350;2023-06-22T06:48:59;29.10;50.80
11140;DHT22;5624;49.388;11.350;2023-06-22T06:51:25;29.10;51.30
11140;DHT22;5624;49.388;11.350;2023-06-22T06:53:50;28.90;52.20
11140;DHT22;5624;49.388;11.350;2023-06-22T06:56:16;28.40;52.50
11140;DHT22;5624;49.388;11.350;2023-06-22T06:58:42;28.40;52.90
11140;DHT22;5624;49.388;11.350;2023-06-22T07:01:08;28.80;52.30
11140;DHT22;5624;49.388;11.350;2023-06-22T07:03:34;28.80;52.20
11140;DHT22;5624;49.388;11.350;2023-06-22T07:06:00;28.50;51.70
11140;DHT22;5624;49.388;11.350;2023-06-22T07:08:25;28.50;52.80
11140;DHT22;5624;49.388;11.350;2023-06-22T07:10:52;28.70;51.50
11140;DHT22;5624;49.388;11.350;2023-06-22T07:13:17;28.90;50.90
11140;DHT22;5624;49.388;11.350;2023-06-22T07:15:43;28.90;52.20
11140;DHT22;5624;49.388;11.350;2023-06-22T07:18:09;28.70;52.10
11140;DHT22;5624;49.388;11.350;2023-06-22T07:20:34;29.00;50.80
11140;DHT22;5624;49.388;11.350;2023-06-22T07:23:00;29.90;48.90
11140;DHT22;5624;49.388;11.350;2023-06-22T07:25:26;29.60;48.90
11140;DHT22;5624;49.388;11.350;2023-06-22T07:28:05;30.20;50.00
11140;DHT22;5624;49.388;11.350;2023-06-22T07:30:32;30.50;46.20
11140;DHT22;5624;49.388;11.350;2023-06-22T07:32:58;30.90;45.60
11140;DHT22;5624;49.388;11.350;2023-06-22T07:35:29;30.70;46.40
11140;DHT22;5624;49.388;11.350;2023-06-22T07:37:55;30.80;45.50
11140;DHT22;5624;49.388;11.350;2023-06-22T07:40:20;31.10;44.50
11140;DHT22;5624;49.388;11.350;2023-06-22T07:42:46;30.80;45.20
11140;DHT22;5624;49.388;11.350;2023-06-22T07:45:13;30.80;46.70
11140;DHT22;5624;49.388;11.350;2023-06-22T07:47:39;31.00;47.20
11140;DHT22;5624;49.388;11.350;2023-06-22T07:50:05;31.70;45.80
11140;DHT22;5624;49.388;11.350;2023-06-22T07:52:31;31.70;43.10
11140;DHT22;5624;49.388;11.350;2023-06-22T07:54:57;31.50;43.00
11140;DHT22;5624;49.388;11.350;2023-06-22T07:57:23;31.70;42.50
11140;DHT22;5624;49.388;11.350;2023-06-22T07:59:48;31.20;44.50
11140;DHT22;5624;49.388;11.350;2023-06-22T08:02:14;30.90;44.20
11140;DHT22;5624;49.388;11.350;2023-06-22T08:04:40;31.20;43.50
11140;DHT22;5624;49.388;11.350;2023-06-22T08:07:07;31.60;43.80
11140;DHT22;5624;49.388;11.350;2023-06-22T08:09:33;31.40;43.30
11140;DHT22;5624;49.388;11.350;2023-06-22T08:11:59;30.90;44.20
11140;DHT22;5624;49.388;11.350;2023-06-22T08:14:29;30.80;46.00
11140;DHT22;5624;49.388;11.350;2023-06-22T08:16:54;30.90;44.40
11140;DHT22;5624;49.388;11.350;2023-06-22T08:19:20;30.80;44.10
11140;DHT22;5624;49.388;11.350;2023-06-22T08:21:46;30.90;43.50
11140;DHT22;5624;49.388;11.350;2023-06-22T08:24:11;31.00;43.80
11140;DHT22;5624;49.388;11.350;2023-06-22T08:26:38;31.50;43.60
11140;DHT22;5624;49.388;11.350;2023-06-22T08:29:04;31.70;42.60
11140;DHT22;5624;49.388;11.350;2023-06-22T08:31:30;31.60;42.20
11140;DHT22;5624;49.388;11.350;2023-06-22T08:33:55;32.20;41.30
11140;DHT22;5624;49.388;11.350;2023-06-22T08:36:21;32.20;41.30
11140;DHT22;5624;49.388;11.350;2023-06-22T08:38:47;32.50;40.00
11140;DHT22;5624;49.388;11.350;2023-06-22T08:41:17;32.80;39.20
11140;DHT22;5624;49.388;11.350;2023-06-22T08:43:43;32.40;40.00
11140;DHT22;5624;49.388;11.350;2023-06-22T08:46:10;32.60;39.60
11140;DHT22;5624;49.388;11.350;2023-06-22T08:48:36;32.90;40.50
11140;DHT22;5624;49.388;11.350;2023-06-22T08:51:01;33.60;37.80
11140;DHT22;5624;49.388;11.350;2023-06-22T08:53:27;33.00;39.30
11140;DHT22;5624;49.388;11.350;2023-06-22T08:55:53;33.30;39.90
11140;DHT22;5624;49.388;11.350;2023-06-22T08:58:19;33.60;38.70
11140;DHT22;5624;49.388;11.350;2023-06-22T09:00:46;34.10;38.00
11140;DHT22;5624;49.388;11.350;2023-06-22T09:03:12;34.20;36.80
11140;DHT22;5624;49.388;11.350;2023-06-22T09:05:38;33.40;37.60
11140;DHT22;5624;49.388;11.350;2023-06-22T09:08:04;33.70;37.70
11140;DHT22;5624;49.388;11.350;2023-06-22T09:10:30;33.40;38.30
11140;DHT22;5624;49.388;11.350;2023-06-22T09:12:56;33.60;38.00
11140;DHT22;5624;49.388;11.350;2023-06-22T09:15:22;33.60;38.00
11140;DHT22;5624;49.388;11.350;2023-06-22T09:17:47;33.20;38.70
11140;DHT22;5624;49.388;11.350;2023-06-22T09:20:13;33.70;38.30
11140;DHT22;5624;49.388;11.350;2023-06-22T09:22:39;34.10;38.50
11140;DHT22;5624;49.388;11.350;2023-06-22T09:25:05;33.80;37.10
11140;DHT22;5624;49.388;11.350;2023-06-22T09:27:30;33.20;38.10
11140;DHT22;5624;49.388;11.350;2023-06-22T09:29:56;32.90;39.40
11140;DHT22;5624;49.388;11.350;2023-06-22T09:32:24;33.30;37.80
11140;DHT22;5624;49.388;11.350;2023-06-22T09:34:50;33.00;38.40
11140;DHT22;5624;49.388;11.350;2023-06-22T09:37:15;33.00;40.00
11140;DHT22;5624;49.388;11.350;2023-06-22T09:39:41;33.00;38.70
11140;DHT22;5624;49.388;11.350;2023-06-22T09:42:07;33.10;38.20
11140;DHT22;5624;49.388;11.350;2023-06-22T09:44:32;33.30;38.20
11140;DHT22;5624;49.388;11.350;2023-06-22T09:46:58;34.20;38.80
11140;DHT22;5624;49.388;11.350;2023-06-22T09:49:23;34.20;37.00
11140;DHT22;5624;49.388;11.350;2023-06-22T09:51:49;34.00;38.60
11140;DHT22;5624;49.388;11.350;2023-06-22T09:54:16;33.90;39.20
11140;DHT22;5624;49.388;11.350;2023-06-22T09:56:42;34.00;37.80
11140;DHT22;5624;49.388;11.350;2023-06-22T09:59:07;33.60;38.40
11140;DHT22;5624;49.388;11.350;2023-06-22T10:01:33;33.40;38.80
11140;DHT22;5624;49.388;11.350;2023-06-22T10:03:58;33.20;39.00
11140;DHT22;5624;49.388;11.350;2023-06-22T10:06:24;32.90;39.00
11140;DHT22;5624;49.388;11.350;2023-06-22T10:08:51;32.70;38.60
11140;DHT22;5624;49.388;11.350;2023-06-22T10:11:16;33.00;37.60
11140;DHT22;5624;49.388;11.350;2023-06-22T10:13:42;33.20;38.70
11140;DHT22;5624;49.388;11.350;2023-06-22T10:16:08;33.00;38.10
11140;DHT22;5624;49.388;11.350;2023-06-22T10:18:33;33.50;38.90
11140;DHT22;5624;49.388;11.350;2023-06-22T10:21:00;33.60;38.50
11140;DHT22;5624;49.388;11.350;2023-06-22T10:23:25;33.70;38.30
11140;DHT22;5624;49.388;11.350;2023-06-22T10:25:51;33.40;37.60
11140;DHT22;5624;49.388;11.350;2023-06-22T10:28:17;33.10;37.30
11140;DHT22;5624;49.388;11.350;2023-06-22T10:30:42;32.50;38.70
11140;DHT22;5624;49.388;11.350;2023-06-22T10:33:09;32.60;40.00
11140;DHT22;5624;49.388;11.350;2023-06-22T10:35:35;32.70;38.80
11140;DHT22;5624;49.388;11.350;2023-06-22T10:38:03;32.70;39.60
11140;DHT22;5624;49.388;11.350;2023-06-22T10:40:29;33.30;39.10
11140;DHT22;5624;49.388;11.350;2023-06-22T10:42:54;33.60;37.30
11140;DHT22;5624;49.388;11.350;2023-06-22T10:45:20;33.40;38.00
11140;DHT22;5624;49.388;11.350;2023-06-22T10:47:46;33.90;38.40
11140;DHT22;5624;49.388;11.350;2023-06-22T10:50:11;34.00;36.60
11140;DHT22;5624;49.388;11.350;2023-06-22T10:52:37;33.80;36.30
11140;DHT22;5624;49.388;11.350;2023-06-22T10:55:03;33.70;36.80
11140;DHT22;5624;49.388;11.350;2023-06-22T10:57:29;33.20;37.70
11140;DHT22;5624;49.388;11.350;2023-06-22T10:59:55;32.90;36.90
11140;DHT22;5624;49.388;11.350;2023-06-22T11:02:20;32.60;38.70
11140;DHT22;5624;49.388;11.350;2023-06-22T11:04:46;32.70;37.70
11140;DHT22;5624;49.388;11.350;2023-06-22T11:07:13;32.80;38.60
11140;DHT22;5624;49.388;11.350;2023-06-22T11:09:38;33.50;41.50
11140;DHT22;5624;49.388;11.350;2023-06-22T11:12:06;34.00;38.30
11140;DHT22;5624;49.388;11.350;2023-06-22T11:14:32;34.30;36.40
11140;DHT22;5624;49.388;11.350;2023-06-22T11:16:59;34.00;35.60
11140;DHT22;5624;49.388;11.350;2023-06-22T11:19:25;33.50;36.90
11140;DHT22;5624;49.388;11.350;2023-06-22T11:21:50;33.60;37.10
11140;DHT22;5624;49.388;11.350;2023-06-22T11:24:16;34.10;38.90
11140;DHT22;5624;49.388;11.350;2023-06-22T11:26:42;34.40;36.60
11140;DHT22;5624;49.388;11.350;2023-06-22T11:29:08;34.60;36.90
11140;DHT22;5624;49.388;11.350;2023-06-22T11:31:35;34.80;34.50
11140;DHT22;5624;49.388;11.350;2023-06-22T11:34:01;34.50;35.80
11140;DHT22;5624;49.388;11.350;2023-06-22T11:36:27;34.70;35.90
11140;DHT22;5624;49.388;11.350;2023-06-22T11:38:52;34.80;35.80
11140;DHT22;5624;49.388;11.350;2023-06-22T11:41:18;34.80;38.20
11140;DHT22;5624;49.388;11.350;2023-06-22T11:43:44;34.80;35.00
11140;DHT22;5624;49.388;11.350;2023-06-22T11:46:10;34.50;34.80
11140;DHT22;5624;49.388;11.350;2023-06-22T11:48:36;34.20;35.30
11140;DHT22;5624;49.388;11.350;2023-06-22T11:51:03;33.70;37.20
11140;DHT22;5624;49.388;11.350;2023-06-22T11:53:29;33.80;37.20
11140;DHT22;5624;49.388;11.350;2023-06-22T11:55:55;34.10;37.20
11140;DHT22;5624;49.388;11.350;2023-06-22T11:58:21;34.50;36.20
11140;DHT22;5624;49.388;11.350;2023-06-22T12:00:48;34.20;36.00
11140;DHT22;5624;49.388;11.350;2023-06-22T12:03:13;34.00;36.20
11140;DHT22;5624;49.388;11.350;2023-06-22T12:05:40;34.20;36.80
11140;DHT22;5624;49.388;11.350;2023-06-22T12:08:06;34.00;36.60
11140;DHT22;5624;49.388;11.350;2023-06-22T12:10:31;33.50;36.70
11140;DHT22;5624;49.388;11.350;2023-06-22T12:12:57;33.60;37.70
11140;DHT22;5624;49.388;11.350;2023-06-22T12:15:25;33.60;36.70
11140;DHT22;5624;49.388;11.350;2023-06-22T12:17:50;33.80;37.30
11140;DHT22;5624;49.388;11.350;2023-06-22T12:20:16;34.20;36.50
11140;DHT22;5624;49.388;11.350;2023-06-22T12:22:42;33.60;36.90
11140;DHT22;5624;49.388;11.350;2023-06-22T12:25:09;33.20;36.90
11140;DHT22;5624;49.388;11.350;2023-06-22T12:27:37;33.30;37.00
11140;DHT22;5624;49.388;11.350;2023-06-22T12:30:03;33.00;36.80
11140;DHT22;5624;49.388;11.350;2023-06-22T12:32:29;33.10;38.20
11140;DHT22;5624;49.388;11.350;2023-06-22T12:34:56;33.10;37.90
11140;DHT22;5624;49.388;11.350;2023-06-22T12:37:22;32.90;38.20
11140;DHT22;5624;49.388;11.350;2023-06-22T12:39:48;32.70;38.20
11140;DHT22;5624;49.388;11.350;2023-06-22T12:42:15;33.00;38.00
11140;DHT22;5624;49.388;11.350;2023-06-22T12:44:41;33.00;38.50
11140;DHT22;5624;49.388;11.350;2023-06-22T12:47:07;33.00;38.30
11140;DHT22;5624;49.388;11.350;2023-06-22T12:49:37;33.20;37.50
11140;DHT22;5624;49.388;11.350;2023-06-22T12:52:03;33.10;37.50
11140;DHT22;5624;49.388;11.350;2023-06-22T12:54:29;33.10;36.50
11140;DHT22;5624;49.388;11.350;2023-06-22T12:56:55;33.10;37.60
11140;DHT22;5624;49.388;11.350;2023-06-22T12:59:21;33.10;37.50
11140;DHT22;5624;49.388;11.350;2023-06-22T13:01:47;33.00;37.60
11140;DHT22;5624;49.388;11.350;2023-06-22T13:04:13;32.70;38.60
11140;DHT22;5624;49.388;11.350;2023-06-22T13:06:41;32.70;37.20
11140;DHT22;5624;49.388;11.350;2023-06-22T13:09:06;33.00;38.10
11140;DHT22;5624;49.388;11.350;2023-06-22T13:11:32;33.40;37.80
11140;DHT22;5624;49.388;11.350;2023-06-22T13:13:57;33.50;37.60
11140;DHT22;5624;49.388;11.350;2023-06-22T13:16:23;33.60;36.20
11140;DHT22;5624;49.388;11.350;2023-06-22T13:18:49;33.30;36.10
11140;DHT22;5624;49.388;11.350;2023-06-22T13:21:14;33.50;37.00
11140;DHT22;5624;49.388;11.350;2023-06-22T13:23:40;33.50;36.20
11140;DHT22;5624;49.388;11.350;2023-06-22T13:26:07;33.70;37.60
11140;DHT22;5624;49.388;11.350;2023-06-22T13:28:33;33.70;36.00
11140;DHT22;5624;49.388;11.350;2023-06-22T13:30:58;33.80;35.50
11140;DHT22;5624;49.388;11.350;2023-06-22T13:33:24;33.40;37.00
11140;DHT22;5624;49.388;11.350;2023-06-22T13:35:49;33.40;35.30
11140;DHT22;5624;49.388;11.350;2023-06-22T13:38:16;33.20;35.40
11140;DHT22;5624;49.388;11.350;2023-06-22T13:40:43;32.90;36.60
11140;DHT22;5624;49.388;11.350;2023-06-22T13:43:08;32.90;38.80
11140;DHT22;5624;49.388;11.350;2023-06-22T13:45:34;32.90;38.50
11140;DHT22;5624;49.388;11.350;2023-06-22T13:48:00;33.10;37.60
11140;DHT22;5624;49.388;11.350;2023-06-22T13:50:26;33.40;35.40
11140;DHT22;5624;49.388;11.350;2023-06-22T13:52:51;33.50;35.80
11140;DHT22;5624;49.388;11.350;2023-06-22T13:55:17;33.80;36.20
11140;DHT22;5624;49.388;11.350;2023-06-22T13:57:43;33.80;35.70
11140;DHT22;5624;49.388;11.350;2023-06-22T14:00:09;33.60;36.70
11140;DHT22;5624;49.388;11.350;2023-06-22T14:02:35;33.50;35.80
11140;DHT22;5624;49.388;11.350;2023-06-22T14:05:01;33.20;36.20
11140;DHT22;5624;49.388;11.350;2023-06-22T14:07:27;32.90;36.80
11140;DHT22;5624;49.388;11.350;2023-06-22T14:09:53;32.90;38.20
11140;DHT22;5624;49.388;11.350;2023-06-22T14:12:19;33.00;36.70
11140;DHT22;5624;49.388;11.350;2023-06-22T14:14:44;33.10;36.50
11140;DHT22;5624;49.388;11.350;2023-06-22T14:17:10;33.00;37.30
11140;DHT22;5624;49.388;11.350;2023-06-22T14:19:36;33.00;36.70
11140;DHT22;5624;49.388;11.350;2023-06-22T14:22:02;33.00;36.50
11140;DHT22;5624;49.388;11.350;2023-06-22T14:24:28;33.00;36.20
11140;DHT22;5624;49.388;11.350;2023-06-22T14:26:54;32.80;37.40
11140;DHT22;5624;49.388;11.350;2023-06-22T14:29:24;32.90;36.70
11140;DHT22;5624;49.388;11.350;2023-06-22T14:31:50;33.00;36.00
11140;DHT22;5624;49.388;11.350;2023-06-22T14:34:16;32.80;36.90
11140;DHT22;5624;49.388;11.350;2023-06-22T14:36:42;32.80;37.30
11140;DHT22;5624;49.388;11.350;2023-06-22T14:39:08;32.80;37.00
11140;DHT22;5624;49.388;11.350;2023-06-22T14:41:34;32.60;37.40
11140;DHT22;5624;49.388;11.350;2023-06-22T14:44:00;32.60;37.40
11140;DHT22;5624;49.388;11.350;2023-06-22T14:46:25;32.70;37.30
11140;DHT22;5624;49.388;11.350;2023-06-22T14:48:51;32.80;37.90
11140;DHT22;5624;49.388;11.350;2023-06-22T14:51:17;32.90;36.80
11140;DHT22;5624;49.388;11.350;2023-06-22T14:53:44;33.00;36.80
11140;DHT22;5624;49.388;11.350;2023-06-22T14:56:10;32.70;36.80
11140;DHT22;5624;49.388;11.350;2023-06-22T14:58:35;32.60;37.00
11140;DHT22;5624;49.388;11.350;2023-06-22T15:01:02;32.80;37.30
11140;DHT22;5624;49.388;11.350;2023-06-22T15:03:29;32.90;35.80
11140;DHT22;5624;49.388;11.350;2023-06-22T15:05:57;32.90;36.00
11140;DHT22;5624;49.388;11.350;2023-06-22T15:08:23;33.00;37.10
11140;DHT22;5624;49.388;11.350;2023-06-22T15:10:51;32.80;36.60
11140;DHT22;5624;49.388;11.350;2023-06-22T15:13:16;32.80;38.20
11140;DHT22;5624;49.388;11.350;2023-06-22T15:15:43;32.80;38.00
11140;DHT22;5624;49.388;11.350;2023-06-22T15:18:09;32.80;37.50
11140;DHT22;5624;49.388;11.350;2023-06-22T15:20:34;32.90;37.60
11140;DHT22;5624;49.388;11.350;2023-06-22T15:23:00;32.80;37.40
11140;DHT22;5624;49.388;11.350;2023-06-22T15:25:26;32.80;36.00
11140;DHT22;5624;49.388;11.350;2023-06-22T15:27:51;32.80;35.30